メインページ
METAR-TAF:

METAR-TAF

空港 :

コルカタ, インド

ネータージー・スバース・チャンドラ・ボース国際空港

緯度: 22-39N, 経度: 088-27E, 海抜: 4m

現時点の気象観測

当レポートは33分前の20:30(UTC)に作成
の風 9kt
気温 27°C
湿度 89%
気圧 1007 hPa
視程: 3500m
高度2000ftの雲は散在している
煙霧

METAR: VECC 292030Z 19009KT 3500 HZ SCT020 27/25 Q1007 NOSIG

時間: 02:33 (21:03 UTC)

予報

当レポートは4時間3分前の17:00(UTC)に作成
予報は29日の 18時(UTC)から 30日の 24時(UTC)まで有効
の風 10kt
視程: 3000m
高度2000ftの雲は散在している
煙霧
29日の 21時(UTC)から 29日の 23時(UTC)まで徐々に
の風 8kt
視程: 2500m
煙霧
30日の 02時(UTC)から 30日の 04時(UTC)まで徐々に
南/南西の風 10kt
視程: 3500m
煙霧
30日の 18時(UTC)から 30日の 20時(UTC)まで徐々に
の風 8kt
視程: 2500m
煙霧

TAF: VECC 291700Z 2918/3024 19010KT 3000 HZ SCT020 BECMG 2921/2923 17008KT 2500 HZ BECMG 3002/3004 21010KT 3500 HZ BECMG 3018/3020 18008KT 2500 HZ

4,000以上の空港の気象観測と天気予報(METAR報とTAF報)

利用可能な観測所は地図上に黄色い丸と赤い丸で示す。

丸の上にカーソルを重ねると観測所名を参照できる。

次にクリックすると気象観測と天気予報を参照できる。

マップの切り替え:黒色「×」印の緑ボタンをクリックして拡大、「-」印の緑ボタンをクリックして縮小、緑色の三角印をクリックして隣りの地図に切り替え


METAR-TAF: